Time;durP1;ratioP1;P1;durP2;ratioP2;P2;SDS_P1;SDS_P2;PMS_P1;PMS_P2;Temp;Humidity;BMP_temperature;BMP_pressure;BME280_temperature;BME280_humidity;BME280_pressure;Samples;Min_cycle;Max_cycle;Signal;HPM_P1;HPM_P2
2022/03/06 00:01:53;;;;;;;26.70;15.25;;;2.50;99.90;;;;;;4921646;29;20048;-93
2022/03/06 00:04:21;;;;;;;27.98;15.82;;;2.50;99.90;;;;;;4921173;29;20036;-93
2022/03/06 00:06:47;;;;;;;26.73;14.90;;;2.40;99.90;;;;;;4920492;29;20107;-94
2022/03/06 00:09:13;;;;;;;25.45;15.32;;;2.40;99.90;;;;;;4921234;29;20068;-94
2022/03/06 00:11:38;;;;;;;24.90;14.52;;;2.30;99.90;;;;;;4921316;29;20039;-94
2022/03/06 00:14:14;;;;;;;;;;;;;;;;;;;;;
2022/03/06 00:16:41;;;;;;;24.65;14.82;;;2.30;99.90;;;;;;4922257;29;20028;-93
2022/03/06 00:19:11;;;;;;;25.65;15.43;;;2.20;99.90;;;;;;4920406;29;20107;-93
2022/03/06 00:21:39;;;;;;;26.23;16.25;;;2.20;99.90;;;;;;4921026;29;20471;-93
2022/03/06 00:24:05;;;;;;;28.08;16.02;;;2.20;99.90;;;;;;4920916;29;20067;-92
2022/03/06 00:26:32;;;;;;;28.38;16.08;;;2.10;99.90;;;;;;4920615;29;20120;-93
2022/03/06 00:28:57;;;;;;;29.92;15.85;;;2.10;99.90;;;;;;4920992;29;20430;-93
2022/03/06 00:31:24;;;;;;;26.95;15.73;;;2.10;99.90;;;;;;4920611;29;20029;-94
2022/03/06 00:33:53;;;;;;;28.38;15.55;;;2.00;99.90;;;;;;4921267;29;20086;-93
2022/03/06 00:36:19;;;;;;;24.60;15.07;;;2.00;99.90;;;;;;4905661;29;20491;-93
2022/03/06 00:38:45;;;;;;;25.35;14.93;;;2.00;99.90;;;;;;4920706;29;20036;-94
2022/03/06 00:41:15;;;;;;;26.42;14.82;;;1.90;99.90;;;;;;4920793;29;20505;-92
2022/03/06 00:43:42;;;;;;;27.80;15.15;;;1.90;99.90;;;;;;4920712;29;20036;-92
2022/03/06 00:46:10;;;;;;;26.50;15.25;;;1.90;99.90;;;;;;4920697;29;20028;-92
2022/03/06 00:48:36;;;;;;;25.55;14.27;;;1.90;99.90;;;;;;4920373;29;20498;-92
2022/03/06 00:51:04;;;;;;;25.45;14.13;;;1.80;99.90;;;;;;4920678;29;20031;-93
2022/03/06 00:53:30;;;;;;;27.75;15.00;;;1.80;99.90;;;;;;4920325;29;20045;-92
2022/03/06 00:55:56;;;;;;;24.65;13.50;;;1.80;99.90;;;;;;4921005;29;20036;-93
2022/03/06 00:58:22;;;;;;;20.42;12.35;;;1.70;99.90;;;;;;4921254;29;20024;-93
2022/03/06 01:00:48;;;;;;;22.52;13.43;;;1.70;99.90;;;;;;4920249;29;20047;-94
2022/03/06 01:03:20;;;;;;;21.40;12.82;;;1.70;99.90;;;;;;4921738;29;20521;-93
2022/03/06 01:05:50;;;;;;;25.15;14.95;;;1.70;99.90;;;;;;4922621;29;20040;-94
2022/03/06 01:08:16;;;;;;;25.05;14.18;;;1.60;99.90;;;;;;4921287;29;20495;-93
2022/03/06 01:10:53;;;;;;;21.58;12.95;;;1.60;99.90;;;;;;4927561;29;20024;-93
2022/03/06 01:13:22;;;;;;;24.88;14.88;;;1.60;99.90;;;;;;4939319;29;20032;-94
2022/03/06 01:15:51;;;;;;;25.80;14.23;;;1.60;99.90;;;;;;4942392;29;20020;-93
2022/03/06 01:18:20;;;;;;;23.35;13.98;;;1.60;99.90;;;;;;4942515;29;20020;-93
2022/03/06 01:20:46;;;;;;;29.27;16.90;;;1.60;99.90;;;;;;4942196;29;20044;-93
2022/03/06 01:23:11;;;;;;;26.65;15.20;;;1.50;99.90;;;;;;4942343;29;20047;-94
2022/03/06 01:25:37;;;;;;;26.05;14.50;;;1.50;99.90;;;;;;4942007;29;20064;-94
2022/03/06 01:28:03;;;;;;;22.02;13.48;;;1.50;99.90;;;;;;4942219;29;20013;-93
2022/03/06 01:30:32;;;;;;;25.65;14.50;;;1.50;99.90;;;;;;4942222;29;20096;-94
2022/03/06 01:32:58;;;;;;;23.95;14.60;;;1.50;99.90;;;;;;4941330;28;20040;-93
2022/03/06 01:35:26;;;;;;;24.80;14.20;;;1.60;99.90;;;;;;4938292;29;20039;-93
2022/03/06 01:37:52;;;;;;;23.48;14.40;;;1.50;99.90;;;;;;4937308;29;20033;-94
2022/03/06 01:40:19;;;;;;;26.60;14.93;;;1.50;99.90;;;;;;4938482;29;20048;-94
2022/03/06 01:42:56;;;;;;;24.52;15.57;;;1.50;99.90;;;;;;4922340;29;20089;-94
2022/03/06 01:45:23;;;;;;;25.27;15.05;;;1.50;99.90;;;;;;4922241;29;20064;-93
2022/03/06 01:47:54;;;;;;;25.25;14.60;;;1.50;99.90;;;;;;4923248;29;20032;-93
2022/03/06 01:50:22;;;;;;;23.73;14.07;;;1.40;99.90;;;;;;4924196;29;20040;-92
2022/03/06 01:52:51;;;;;;;23.73;14.35;;;1.40;99.90;;;;;;4925428;29;20036;-91
2022/03/06 01:55:18;;;;;;;22.05;14.25;;;1.40;99.90;;;;;;4930542;29;20040;-91
2022/03/06 01:57:46;;;;;;;26.08;14.30;;;1.40;99.90;;;;;;4924529;29;20036;-92
2022/03/06 02:00:23;;;;;;;22.20;13.40;;;1.40;99.90;;;;;;4924012;29;20048;-92
2022/03/06 02:02:52;;;;;;;24.23;16.15;;;1.30;99.90;;;;;;4926704;29;20044;-93
2022/03/06 02:05:18;;;;;;;24.63;14.32;;;1.30;99.90;;;;;;4925746;29;20063;-93
2022/03/06 02:07:44;;;;;;;23.40;14.10;;;1.30;99.90;;;;;;4922908;29;20126;-93
2022/03/06 02:10:11;;;;;;;19.65;13.27;;;1.30;99.90;;;;;;4926859;29;20036;-92
2022/03/06 02:12:37;;;;;;;24.38;13.85;;;1.30;99.90;;;;;;4928849;29;20092;-92
2022/03/06 02:15:07;;;;;;;21.63;14.52;;;1.30;99.90;;;;;;4921787;29;20104;-92
2022/03/06 02:17:42;;;;;;;21.90;13.88;;;1.20;99.90;;;;;;4920777;29;20032;-91
2022/03/06 02:20:17;;;;;;;22.02;13.40;;;1.30;99.90;;;;;;4925603;29;20036;-92
2022/03/06 02:22:49;;;;;;;25.30;14.65;;;1.10;99.90;;;;;;4924467;29;20039;-92
2022/03/06 02:25:29;;;;;;;21.17;14.30;;;1.10;99.90;;;;;;4906999;29;20048;-91
2022/03/06 02:28:00;;;;;;;21.30;14.07;;;1.10;99.90;;;;;;4931794;29;20227;-92
2022/03/06 02:30:33;;;;;;;24.50;15.48;;;1.10;99.90;;;;;;4906252;29;20051;-92
2022/03/06 02:33:04;;;;;;;24.95;14.65;;;1.10;99.90;;;;;;4916856;29;20031;-92
2022/03/06 02:35:32;;;;;;;23.73;13.90;;;1.00;99.90;;;;;;4915386;29;20032;-90
2022/03/06 02:37:58;;;;;;;23.85;13.90;;;1.00;99.90;;;;;;4935030;29;20029;-92
2022/03/06 02:40:24;;;;;;;22.73;13.57;;;1.00;99.90;;;;;;4924633;29;20040;-93
2022/03/06 02:42:51;;;;;;;20.83;13.18;;;1.00;99.90;;;;;;4926391;29;20104;-91
2022/03/06 02:45:21;;;;;;;23.45;14.73;;;1.00;99.90;;;;;;4920914;29;20036;-92
2022/03/06 02:47:51;;;;;;;20.65;12.82;;;1.00;99.90;;;;;;4920492;29;20103;-91
2022/03/06 02:50:19;;;;;;;21.52;13.23;;;0.90;99.90;;;;;;4918554;29;20028;-92
2022/03/06 02:52:45;;;;;;;22.60;13.82;;;0.90;99.90;;;;;;4918258;29;20483;-92
2022/03/06 02:55:12;;;;;;;23.67;14.90;;;0.90;99.90;;;;;;4918599;29;20081;-91
2022/03/06 02:57:38;;;;;;;23.77;14.80;;;0.90;99.90;;;;;;4917846;29;20154;-91
2022/03/06 03:00:07;;;;;;;23.48;14.63;;;0.90;99.90;;;;;;4918694;29;20037;-92
2022/03/06 03:02:34;;;;;;;22.08;14.98;;;0.80;99.90;;;;;;4918977;29;20036;-93
2022/03/06 03:05:00;;;;;;;23.08;15.20;;;0.80;99.90;;;;;;4918581;29;20028;-92
2022/03/06 03:07:26;;;;;;;22.25;14.70;;;0.80;99.90;;;;;;4918668;29;20059;-92
2022/03/06 03:09:52;;;;;;;23.30;15.07;;;0.80;99.90;;;;;;4919029;29;20497;-92
2022/03/06 03:12:18;;;;;;;25.27;17.25;;;0.70;99.90;;;;;;4919232;29;20141;-93
2022/03/06 03:14:44;;;;;;;22.77;15.98;;;0.70;99.90;;;;;;4919703;29;20510;-92
2022/03/06 03:17:14;;;;;;;23.92;15.43;;;0.70;99.90;;;;;;4919897;29;20032;-92
2022/03/06 03:19:40;;;;;;;25.58;15.32;;;0.70;99.90;;;;;;4920329;29;20571;-92
2022/03/06 03:22:06;;;;;;;24.38;15.52;;;0.60;99.90;;;;;;4921902;29;20127;-92
2022/03/06 03:24:32;;;;;;;24.95;15.70;;;0.60;99.90;;;;;;4922888;29;20056;-92
2022/03/06 03:26:57;;;;;;;26.00;15.25;;;0.60;99.90;;;;;;4925672;29;20036;-91
2022/03/06 03:29:23;;;;;;;26.20;16.45;;;0.50;99.90;;;;;;4931887;29;20063;-90
2022/03/06 03:31:49;;;;;;;21.27;13.88;;;0.50;99.90;;;;;;4929390;29;20068;-93
2022/03/06 03:34:15;;;;;;;22.02;14.52;;;0.50;99.90;;;;;;4921390;29;20036;-91
2022/03/06 03:36:42;;;;;;;22.02;14.90;;;0.50;99.90;;;;;;4920984;29;20060;-91
2022/03/06 03:39:07;;;;;;;22.20;14.45;;;0.50;99.90;;;;;;4924335;29;20032;-93
2022/03/06 03:41:33;;;;;;;23.25;14.55;;;0.50;99.90;;;;;;4924341;29;20080;-92
2022/03/06 03:44:01;;;;;;;22.88;14.98;;;0.50;99.90;;;;;;4919301;29;20039;-92
2022/03/06 03:46:27;;;;;;;25.05;15.55;;;0.50;99.90;;;;;;4920125;29;20028;-92
2022/03/06 03:48:53;;;;;;;21.10;14.02;;;0.40;99.90;;;;;;4923110;29;20505;-92
2022/03/06 03:51:19;;;;;;;24.98;15.45;;;0.40;99.90;;;;;;4923024;29;20043;-93
2022/03/06 03:53:44;;;;;;;22.90;15.00;;;0.40;99.90;;;;;;4918912;29;20044;-93
2022/03/06 03:56:10;;;;;;;22.20;15.07;;;0.40;99.90;;;;;;4919190;29;20531;-93
2022/03/06 03:58:38;;;;;;;21.95;14.48;;;0.40;99.90;;;;;;4919459;29;20040;-93
2022/03/06 04:01:04;;;;;;;23.90;15.82;;;0.40;99.90;;;;;;4919192;29;20032;-92
2022/03/06 04:03:30;;;;;;;21.40;14.18;;;0.30;99.90;;;;;;4921781;29;20047;-93
2022/03/06 04:05:56;;;;;;;21.48;13.05;;;0.30;99.90;;;;;;4905444;29;20119;-93
2022/03/06 04:08:22;;;;;;;22.55;13.30;;;0.20;99.90;;;;;;4921511;29;20519;-93
2022/03/06 04:10:49;;;;;;;24.23;14.57;;;0.20;99.90;;;;;;4921278;29;20055;-94
2022/03/06 04:13:14;;;;;;;21.90;14.60;;;0.20;99.90;;;;;;4921258;29;20083;-93
2022/03/06 04:15:41;;;;;;;23.38;14.73;;;0.20;99.90;;;;;;4921035;29;20399;-93
2022/03/06 04:18:06;;;;;;;26.45;16.20;;;0.10;99.90;;;;;;4921078;29;20090;-92
2022/03/06 04:20:32;;;;;;;24.73;15.55;;;0.10;99.90;;;;;;4921111;29;20222;-93
2022/03/06 04:22:58;;;;;;;22.60;14.68;;;0.10;99.90;;;;;;4921336;29;20447;-92
2022/03/06 04:25:24;;;;;;;21.35;13.77;;;0.10;99.90;;;;;;4920755;29;20052;-93
2022/03/06 04:27:50;;;;;;;22.65;14.65;;;0.10;99.90;;;;;;4921021;29;20131;-92
2022/03/06 04:30:16;;;;;;;21.67;14.57;;;0.10;99.90;;;;;;4921079;29;20106;-91
2022/03/06 04:32:41;;;;;;;23.02;14.52;;;0.10;99.90;;;;;;4920411;29;20538;-92
2022/03/06 04:35:08;;;;;;;22.38;14.43;;;0.10;99.90;;;;;;4920500;29;20036;-91
2022/03/06 04:37:34;;;;;;;22.25;14.30;;;0.10;99.90;;;;;;4920798;29;20036;-92
2022/03/06 04:40:00;;;;;;;21.77;14.40;;;0.10;99.90;;;;;;4920893;29;20047;-92
2022/03/06 04:42:25;;;;;;;20.33;13.07;;;0.10;99.90;;;;;;4921195;29;20048;-92
2022/03/06 04:44:51;;;;;;;19.70;13.50;;;0.00;99.90;;;;;;4921140;29;20028;-92
2022/03/06 04:47:17;;;;;;;21.30;13.57;;;0.10;99.90;;;;;;4920946;29;20055;-92
2022/03/06 04:49:43;;;;;;;25.05;14.30;;;0.00;99.90;;;;;;4921912;29;20032;-93
2022/03/06 04:52:08;;;;;;;22.23;13.77;;;0.00;99.90;;;;;;4923808;29;20032;-91
2022/03/06 04:54:34;;;;;;;23.38;14.27;;;-0.10;99.90;;;;;;4924486;29;20096;-92
2022/03/06 04:57:00;;;;;;;20.42;13.80;;;-0.10;99.90;;;;;;4928892;29;20012;-91
2022/03/06 04:59:27;;;;;;;20.13;13.63;;;-0.10;99.90;;;;;;4935237;29;20063;-92
2022/03/06 05:01:53;;;;;;;22.58;12.88;;;-0.10;99.90;;;;;;4933693;29;20012;-91
2022/03/06 05:04:19;;;;;;;22.77;14.02;;;-0.10;99.90;;;;;;4933711;29;20067;-92
2022/03/06 05:06:44;;;;;;;23.30;14.45;;;-0.10;99.90;;;;;;4923051;29;20040;-91
2022/03/06 05:09:10;;;;;;;21.23;14.55;;;-0.10;99.90;;;;;;4923295;29;20040;-91
2022/03/06 05:11:36;;;;;;;21.42;13.73;;;-0.20;99.90;;;;;;4928128;29;20039;-93
2022/03/06 05:14:02;;;;;;;20.15;13.63;;;-0.10;99.90;;;;;;4924318;29;20044;-93
2022/03/06 05:16:28;;;;;;;20.27;13.32;;;-0.20;99.90;;;;;;4920492;29;20075;-92
2022/03/06 05:18:54;;;;;;;20.20;13.32;;;-0.10;99.90;;;;;;4921071;29;20032;-92
2022/03/06 05:21:20;;;;;;;21.08;13.63;;;-0.10;99.90;;;;;;4921148;29;20028;-93
2022/03/06 05:23:46;;;;;;;21.15;13.55;;;-0.20;99.90;;;;;;4920873;29;20051;-94
2022/03/06 05:26:11;;;;;;;21.55;13.30;;;-0.10;99.90;;;;;;4921991;29;20028;-93
2022/03/06 05:28:38;;;;;;;21.52;14.02;;;-0.10;99.90;;;;;;4922399;29;20131;-92
2022/03/06 05:31:04;;;;;;;20.10;13.60;;;-0.10;99.90;;;;;;4921904;29;20143;-92
2022/03/06 05:33:30;;;;;;;21.80;12.90;;;-0.10;99.90;;;;;;4920574;29;20044;-93
2022/03/06 05:35:56;;;;;;;18.38;12.80;;;0.00;99.90;;;;;;4904678;29;20119;-93
2022/03/06 05:38:21;;;;;;;16.80;11.73;;;-0.10;99.90;;;;;;4920518;29;20059;-93
2022/03/06 05:40:47;;;;;;;18.48;12.30;;;-0.10;99.90;;;;;;4919973;29;20028;-91
2022/03/06 05:43:13;;;;;;;21.58;13.25;;;-0.10;99.90;;;;;;4903982;29;20100;-92
2022/03/06 05:45:39;;;;;;;19.13;12.63;;;-0.10;99.90;;;;;;4919820;29;20052;-92
2022/03/06 05:48:04;;;;;;;19.75;12.98;;;-0.20;99.90;;;;;;4920406;29;20123;-93
2022/03/06 05:50:32;;;;;;;19.50;11.80;;;-0.20;99.90;;;;;;4920451;29;20514;-93
2022/03/06 05:52:57;;;;;;;18.50;12.30;;;-0.20;99.90;;;;;;4935142;29;20033;-92
2022/03/06 05:55:23;;;;;;;21.50;14.02;;;-0.30;99.90;;;;;;4924439;29;20515;-92
2022/03/06 05:57:49;;;;;;;18.75;12.10;;;-0.30;99.90;;;;;;4920223;29;20036;-92
2022/03/06 06:00:17;;;;;;;18.77;11.90;;;-0.30;99.90;;;;;;4919327;29;20383;-93
2022/03/06 06:02:43;;;;;;;17.52;12.25;;;-0.30;99.90;;;;;;4919036;29;20024;-92
2022/03/06 06:05:09;;;;;;;18.25;11.85;;;-0.30;99.90;;;;;;4919117;29;20115;-92
2022/03/06 06:07:36;;;;;;;18.95;12.00;;;-0.30;99.90;;;;;;4919620;29;20280;-92
2022/03/06 06:10:03;;;;;;;21.52;13.07;;;-0.30;99.90;;;;;;4903720;29;20043;-92
2022/03/06 06:12:30;;;;;;;19.42;12.35;;;-0.30;99.90;;;;;;4919735;29;20032;-93
2022/03/06 06:14:56;;;;;;;17.95;12.18;;;-0.40;99.90;;;;;;4903841;29;20076;-93
2022/03/06 06:17:22;;;;;;;18.92;12.57;;;-0.30;99.90;;;;;;4919304;29;20039;-92
2022/03/06 06:19:48;;;;;;;23.17;14.07;;;-0.30;99.90;;;;;;4919311;29;20039;-92
2022/03/06 06:22:13;;;;;;;23.38;15.48;;;-0.40;99.90;;;;;;4919739;29;20043;-91
2022/03/06 06:24:39;;;;;;;22.13;13.85;;;-0.40;99.90;;;;;;4918592;29;20051;-92
2022/03/06 06:27:05;;;;;;;22.98;14.38;;;-0.40;99.90;;;;;;4919516;29;20034;-92
2022/03/06 06:29:31;;;;;;;22.25;14.95;;;-0.40;99.90;;;;;;4918760;29;20032;-93
2022/03/06 06:31:57;;;;;;;24.35;16.05;;;-0.40;99.90;;;;;;4918713;29;20067;-91
2022/03/06 06:34:25;;;;;;;23.58;15.90;;;-0.40;99.90;;;;;;4918916;29;20040;-92
2022/03/06 06:36:54;;;;;;;28.17;16.90;;;-0.40;99.90;;;;;;4918990;29;20060;-91
2022/03/06 06:39:22;;;;;;;22.20;14.82;;;-0.40;99.90;;;;;;4918752;29;20032;-92
2022/03/06 06:41:48;;;;;;;25.35;16.13;;;-0.40;99.90;;;;;;4919489;29;20139;-92
2022/03/06 06:44:13;;;;;;;23.15;14.80;;;-0.40;99.90;;;;;;4918763;29;20149;-93
2022/03/06 06:46:42;;;;;;;21.88;15.20;;;-0.40;99.90;;;;;;4918834;29;20024;-92
2022/03/06 06:49:10;;;;;;;22.10;15.32;;;-0.40;99.90;;;;;;4918953;29;20028;-89
2022/03/06 06:51:39;;;;;;;22.48;14.05;;;-0.50;99.90;;;;;;4919123;29;20036;-91
2022/03/06 06:54:05;;;;;;;21.88;14.50;;;-0.40;99.90;;;;;;4919007;29;20060;-91
2022/03/06 06:56:31;;;;;;;22.75;15.13;;;-0.50;99.90;;;;;;4930432;29;20024;-92
2022/03/06 06:58:57;;;;;;;27.08;15.60;;;-0.40;99.90;;;;;;4933707;29;20047;-94
2022/03/06 07:01:23;;;;;;;23.85;15.52;;;-0.40;99.90;;;;;;4933393;29;20032;-92
2022/03/06 07:04:07;;;;;;;26.00;17.05;;;-0.40;99.90;;;;;;4928339;29;20040;-90
2022/03/06 07:06:33;;;;;;;23.30;15.63;;;-0.40;99.90;;;;;;4928182;29;20031;-89
2022/03/06 07:08:59;;;;;;;23.17;14.70;;;-0.40;99.90;;;;;;4925649;29;20036;-90
2022/03/06 07:11:25;;;;;;;26.10;15.88;;;-0.40;99.90;;;;;;4926243;29;20039;-90
2022/03/06 07:13:51;;;;;;;23.73;15.50;;;-0.30;99.90;;;;;;4927727;29;20044;-89
2022/03/06 07:16:16;;;;;;;20.95;14.98;;;-0.30;99.90;;;;;;4931038;29;20032;-90
2022/03/06 07:18:44;;;;;;;21.05;14.60;;;-0.20;99.90;;;;;;4932328;29;20039;-91
2022/03/06 07:21:10;;;;;;;18.80;13.40;;;-0.20;99.90;;;;;;4930370;29;20038;-90
2022/03/06 07:23:36;;;;;;;21.88;13.95;;;-0.20;99.90;;;;;;4930287;29;20043;-91
2022/03/06 07:26:04;;;;;;;22.90;14.82;;;-0.10;99.90;;;;;;4930281;29;20048;-90
2022/03/06 07:28:29;;;;;;;21.42;14.27;;;-0.10;99.90;;;;;;4928298;29;20407;-89
2022/03/06 07:30:55;;;;;;;19.75;14.23;;;0.00;99.90;;;;;;4920223;29;20036;-91
2022/03/06 07:33:21;;;;;;;18.98;13.43;;;0.00;99.90;;;;;;4919984;29;20040;-90
2022/03/06 07:35:47;;;;;;;21.38;14.70;;;0.10;99.90;;;;;;4919660;29;20123;-90
2022/03/06 07:38:13;;;;;;;22.67;14.80;;;0.20;99.90;;;;;;4924069;29;20036;-91
2022/03/06 07:40:42;;;;;;;21.83;14.77;;;0.30;99.90;;;;;;4913256;29;20064;-93
2022/03/06 07:43:08;;;;;;;21.15;14.88;;;0.30;99.90;;;;;;4926737;29;20052;-91
2022/03/06 07:45:33;;;;;;;21.90;15.80;;;0.50;99.90;;;;;;4924195;29;20032;-92
2022/03/06 07:48:10;;;;;;;20.45;14.52;;;0.50;99.90;;;;;;4931017;29;20028;-95
2022/03/06 07:50:46;;;;;;;18.75;13.25;;;0.60;99.90;;;;;;4936109;29;20240;-95
2022/03/06 07:53:13;;;;;;;20.60;14.63;;;0.70;99.90;;;;;;4940017;29;20084;-92
2022/03/06 07:55:39;;;;;;;20.83;14.88;;;0.80;99.90;;;;;;4941466;29;20388;-94
2022/03/06 07:58:05;;;;;;;20.77;14.32;;;0.80;99.90;;;;;;4941996;29;20032;-94
2022/03/06 08:00:34;;;;;;;19.13;13.63;;;0.90;99.90;;;;;;4939512;29;20043;-94
2022/03/06 08:03:41;;;;;;;;;;;;;;;;;;;;;
2022/03/06 08:06:10;;;;;;;15.77;11.60;;;1.10;99.90;;;;;;4929323;29;20155;-94
2022/03/06 08:08:47;;;;;;;16.55;12.00;;;1.30;99.90;;;;;;4939135;29;20279;-94
2022/03/06 08:42:12;;;;;;;15.90;11.50;;;1.80;99.90;;;;;;3872621;23;21023;-92
2022/03/06 08:44:38;;;;;;;14.07;10.00;;;1.90;99.90;;;;;;4888175;29;20056;-94
2022/03/06 08:47:11;;;;;;;15.82;11.20;;;2.00;99.90;;;;;;4889117;29;20025;-93
2022/03/06 08:49:37;;;;;;;15.10;11.25;;;2.00;99.90;;;;;;4889412;29;20021;-90
2022/03/06 08:52:32;;;;;;;15.60;11.35;;;2.20;99.90;;;;;;4887771;29;20109;-94
2022/03/06 08:57:33;;;;;;;15.27;10.82;;;2.30;99.90;;;;;;5802696;23;20073;-94
2022/03/06 08:59:59;;;;;;;16.63;10.80;;;2.40;99.90;;;;;;4904767;29;20021;-94
2022/03/06 09:02:33;;;;;;;16.35;9.82;;;2.40;99.90;;;;;;4903763;29;20050;-95
2022/03/06 09:05:10;;;;;;;18.05;11.15;;;2.50;99.90;;;;;;4903940;29;20041;-94
2022/03/06 09:07:38;;;;;;;14.93;9.75;;;2.60;99.90;;;;;;4903765;29;20017;-94
2022/03/06 09:10:04;;;;;;;11.98;8.57;;;2.70;99.90;;;;;;4903290;29;20061;-91
2022/03/06 09:12:31;;;;;;;13.30;9.07;;;2.80;99.90;;;;;;4889323;29;20062;-90
2022/03/06 09:14:58;;;;;;;14.05;9.60;;;2.90;99.90;;;;;;4883207;29;20057;-92
2022/03/06 09:17:24;;;;;;;13.05;9.13;;;3.00;99.90;;;;;;4883718;29;20124;-91
2022/03/06 09:19:49;;;;;;;12.30;9.32;;;3.00;99.90;;;;;;4883771;29;20057;-93
2022/03/06 09:22:15;;;;;;;13.98;9.73;;;3.10;99.90;;;;;;4883858;29;20024;-92
2022/03/06 09:24:41;;;;;;;11.60;8.50;;;3.10;99.90;;;;;;4884004;29;20045;-95
2022/03/06 09:27:07;;;;;;;13.20;8.75;;;3.10;99.90;;;;;;4881377;29;20113;-91
2022/03/06 09:29:33;;;;;;;13.93;9.25;;;3.20;99.90;;;;;;4873355;29;20050;-90
2022/03/06 09:31:58;;;;;;;11.10;8.10;;;3.30;99.90;;;;;;4872229;29;20076;-92
2022/03/06 09:34:24;;;;;;;11.80;8.02;;;3.40;99.90;;;;;;4866831;29;20079;-91
2022/03/06 09:36:50;;;;;;;10.10;7.43;;;3.60;99.90;;;;;;4865405;29;20030;-90
2022/03/06 09:39:16;;;;;;;9.88;7.63;;;4.80;99.90;;;;;;4864972;29;20042;-90
2022/03/06 09:41:42;;;;;;;10.25;6.88;;;6.30;99.90;;;;;;4865754;29;20036;-91
2022/03/06 09:44:13;;;;;;;10.52;7.70;;;7.50;99.90;;;;;;4857286;29;20045;-89
2022/03/06 09:46:40;;;;;;;10.57;7.07;;;8.50;99.90;;;;;;4868691;29;20128;-93
2022/03/06 09:49:07;;;;;;;9.85;6.82;;;9.30;99.90;;;;;;4866123;29;20037;-90
2022/03/06 09:51:34;;;;;;;7.68;5.63;;;10.00;99.90;;;;;;4864292;29;20033;-92
2022/03/06 09:54:00;;;;;;;9.73;6.70;;;10.30;99.90;;;;;;4867346;29;20047;-92
2022/03/06 09:56:26;;;;;;;9.80;6.30;;;10.60;99.90;;;;;;4863775;29;20041;-90
2022/03/06 10:04:39;;;;;;;7.90;5.50;;;11.20;99.00;;;;;;5051686;23;20479;-94
2022/03/06 10:07:15;;;;;;;9.23;6.05;;;11.60;98.50;;;;;;4904619;29;20032;-93
2022/03/06 10:21:39;;;;;;;7.35;5.57;;;13.60;94.20;;;;;;5634949;23;20044;-90
2022/03/06 10:24:06;;;;;;;7.35;5.35;;;13.70;92.80;;;;;;4917970;29;20127;-90
2022/03/06 10:26:37;;;;;;;6.93;5.05;;;13.70;92.70;;;;;;4903136;29;20400;-90
2022/03/06 10:29:12;;;;;;;6.75;4.57;;;14.10;92.00;;;;;;4904561;29;20064;-91
2022/03/06 10:31:53;;;;;;;5.72;3.90;;;14.40;91.90;;;;;;4904074;29;20044;-88
2022/03/06 10:34:19;;;;;;;6.28;4.68;;;14.80;91.30;;;;;;4900528;29;20051;-87
2022/03/06 10:36:51;;;;;;;5.80;3.92;;;15.10;90.50;;;;;;4901626;29;20024;-89
2022/03/06 10:39:19;;;;;;;6.87;4.80;;;15.40;90.30;;;;;;4899870;29;20032;-87
2022/03/06 10:41:54;;;;;;;7.43;4.72;;;15.60;88.40;;;;;;4900743;29;20096;-88
2022/03/06 10:44:22;;;;;;;6.28;4.53;;;15.60;84.40;;;;;;4903566;29;20044;-91
2022/03/06 10:46:58;;;;;;;6.88;4.95;;;15.40;84.40;;;;;;4896041;29;20020;-91
2022/03/06 10:49:25;;;;;;;6.70;4.95;;;15.40;82.20;;;;;;4901693;29;20050;-90
2022/03/06 10:51:51;;;;;;;7.53;5.05;;;15.40;82.90;;;;;;4901341;29;20138;-91
2022/03/06 10:54:17;;;;;;;6.53;4.55;;;15.80;80.90;;;;;;4901801;29;20534;-88
2022/03/06 10:56:47;;;;;;;6.28;4.60;;;16.00;81.20;;;;;;4899493;29;20067;-89
2022/03/06 10:59:17;;;;;;;6.38;4.82;;;16.10;78.70;;;;;;4904106;29;20046;-88
2022/03/06 11:01:43;;;;;;;5.88;4.25;;;16.20;77.60;;;;;;4895508;29;20406;-86
2022/03/06 11:04:12;;;;;;;6.88;4.93;;;16.10;76.90;;;;;;4892526;29;20607;-88
2022/03/06 11:06:42;;;;;;;7.35;4.80;;;15.90;75.30;;;;;;4902750;29;20060;-90
2022/03/06 11:09:16;;;;;;;6.13;3.80;;;15.90;74.80;;;;;;4889379;29;20040;-89
2022/03/06 11:11:43;;;;;;;;;;;16.00;74.80;;;;;;4902434;29;20232;-89
2022/03/06 11:14:09;;;;;;;6.30;4.50;;;16.10;73.30;;;;;;4888223;29;19916;-89
2022/03/06 11:16:37;;;;;;;6.55;4.63;;;16.00;73.00;;;;;;4903188;29;20411;-92
2022/03/06 11:19:04;;;;;;;5.75;4.20;;;16.00;72.40;;;;;;4913201;29;20032;-90
2022/03/06 11:21:51;;;;;;;6.35;3.88;;;16.10;72.20;;;;;;4981097;23;20048;-91
2022/03/06 11:24:19;;;;;;;6.90;4.40;;;16.20;71.80;;;;;;4930921;29;20040;-90
2022/03/06 11:30:08;;;;;;;7.35;6.20;;;16.30;67.90;;;;;;5380221;23;20064;-89
2022/03/06 11:35:30;;;;;;;7.40;4.60;;;15.40;69.30;;;;;;4876584;29;20058;-89
2022/03/06 11:37:57;;;;;;;6.05;5.13;;;15.70;68.90;;;;;;4869796;29;20464;-92
2022/03/06 11:40:48;;;;;;;6.43;4.85;;;15.90;68.20;;;;;;4869270;29;20483;-92
2022/03/06 11:43:30;;;;;;;6.55;4.70;;;15.80;67.10;;;;;;4888933;29;20033;-90
2022/03/06 11:45:59;;;;;;;5.15;4.15;;;16.10;66.60;;;;;;4875564;29;20040;-89
2022/03/06 11:48:34;;;;;;;8.20;4.95;;;16.40;67.50;;;;;;4868138;29;20044;-89
2022/03/06 11:51:26;;;;;;;6.43;4.05;;;16.80;66.40;;;;;;4886748;29;20041;-91
2022/03/06 11:54:03;;;;;;;8.20;5.25;;;17.00;67.00;;;;;;4867968;29;20053;-91
2022/03/06 11:56:31;;;;;;;7.50;4.28;;;17.30;65.00;;;;;;4871584;29;20479;-92
2022/03/06 11:59:04;;;;;;;5.93;4.95;;;17.10;65.50;;;;;;4876206;29;20048;-89
2022/03/06 12:02:15;;;;;;;5.88;4.18;;;17.40;65.60;;;;;;4883655;29;20028;-88
2022/03/06 12:08:19;;;;;;;6.63;4.63;;;16.70;64.80;;;;;;5432256;23;20054;-89
2022/03/06 12:10:51;;;;;;;6.55;4.90;;;15.10;65.60;;;;;;4929626;29;20056;-90
2022/03/06 12:13:27;;;;;;;5.97;4.45;;;14.60;66.50;;;;;;4932645;29;20043;-89
2022/03/06 12:16:11;;;;;;;5.63;4.28;;;14.00;67.20;;;;;;4931875;29;20036;-90
2022/03/06 12:18:37;;;;;;;;;;;13.80;67.20;;;;;;4927246;29;20040;-89
2022/03/06 12:21:56;;;;;;;5.18;4.13;;;13.80;68.30;;;;;;4917927;29;19979;-89
2022/03/06 12:24:39;;;;;;;5.72;4.07;;;13.60;68.10;;;;;;4920939;29;20040;-90
2022/03/06 12:27:25;;;;;;;5.85;3.97;;;14.30;69.10;;;;;;4919011;29;20021;-87
2022/03/06 12:30:41;;;;;;;4.45;3.70;;;15.40;68.20;;;;;;4918809;29;20048;-89
2022/03/06 12:33:47;;;;;;;5.22;3.88;;;16.60;66.30;;;;;;4923483;29;20048;-89
2022/03/06 12:36:28;;;;;;;7.53;5.45;;;17.40;65.50;;;;;;4899460;29;20057;-88
2022/03/06 12:39:04;;;;;;;6.25;4.95;;;17.40;62.70;;;;;;4901877;29;20198;-86
2022/03/06 12:41:31;;;;;;;6.13;4.60;;;17.10;62.50;;;;;;4920610;29;20040;-85
2022/03/06 12:43:59;;;;;;;5.72;4.43;;;16.50;63.10;;;;;;4913026;29;20044;-88
2022/03/06 12:46:25;;;;;;;5.65;4.40;;;15.50;64.00;;;;;;4915211;29;20044;-89
2022/03/06 12:48:51;;;;;;;4.40;3.72;;;14.40;64.60;;;;;;4923520;29;20037;-89
2022/03/06 12:51:40;;;;;;;5.00;4.00;;;14.50;65.90;;;;;;4915406;29;20036;-88
2022/03/06 12:54:17;;;;;;;5.90;4.13;;;15.60;65.40;;;;;;4927326;29;20048;-86
2022/03/06 12:56:43;;;;;;;5.18;3.88;;;16.30;64.30;;;;;;4908054;29;20039;-89
2022/03/06 12:59:15;;;;;;;5.60;4.55;;;16.70;63.70;;;;;;4902960;29;20037;-87
2022/03/06 13:01:42;;;;;;;5.45;4.13;;;16.30;62.80;;;;;;4890956;29;20033;-88
2022/03/06 13:04:09;;;;;;;5.95;4.50;;;15.40;63.60;;;;;;4902329;29;20040;-90
2022/03/06 13:06:37;;;;;;;7.30;5.13;;;15.30;64.10;;;;;;4904415;29;20043;-89
2022/03/06 13:09:03;;;;;;;5.53;4.18;;;15.60;64.00;;;;;;4904109;29;20052;-87
2022/03/06 13:11:32;;;;;;;4.90;3.95;;;16.00;63.80;;;;;;4903749;29;20618;-89
2022/03/06 13:14:00;;;;;;;5.85;4.57;;;16.40;63.10;;;;;;4899295;29;20052;-90
2022/03/06 13:16:26;;;;;;;6.22;5.20;;;16.10;62.10;;;;;;4888395;29;20076;-91
2022/03/06 13:18:59;;;;;;;6.28;4.05;;;15.10;62.50;;;;;;4899939;29;20044;-89
2022/03/06 13:21:37;;;;;;;5.47;4.07;;;14.80;63.30;;;;;;4923477;29;20036;-92
2022/03/06 13:24:40;;;;;;;5.22;4.22;;;14.90;63.60;;;;;;4930153;29;20059;-92
2022/03/06 13:27:07;;;;;;;6.50;4.37;;;15.50;64.00;;;;;;4899201;29;20040;-92
2022/03/06 13:29:33;;;;;;;5.95;3.45;;;15.90;63.10;;;;;;4903845;29;20016;-91
2022/03/06 13:31:59;;;;;;;5.18;3.67;;;16.20;62.80;;;;;;4912122;29;20036;-92
2022/03/06 13:34:51;;;;;;;5.28;4.00;;;16.50;62.20;;;;;;4896950;29;20056;-90
2022/03/06 13:37:17;;;;;;;5.65;3.53;;;16.60;61.30;;;;;;4919330;23;20107;-90
2022/03/06 13:39:53;;;;;;;5.40;3.83;;;16.60;62.60;;;;;;4928938;23;20051;-91
2022/03/06 13:42:30;;;;;;;5.47;3.78;;;17.00;62.10;;;;;;4902592;29;20032;-93
2022/03/06 13:44:57;;;;;;;5.40;4.07;;;16.30;61.90;;;;;;4908409;29;20036;-93
2022/03/06 13:47:23;;;;;;;6.15;4.40;;;15.20;62.80;;;;;;4909445;29;20037;-92
2022/03/06 13:50:00;;;;;;;5.85;4.40;;;14.90;64.10;;;;;;4911885;29;20028;-93
2022/03/06 13:52:34;;;;;;;7.35;4.53;;;14.50;64.30;;;;;;4908379;29;20040;-93